Van Nuys Airport Van Nuys US
ICAO: KVNY
IATA: VNY
Category: Medium
Scheduled Services: No

Elevation: 802 ft
TransAlt. 18000 ft.

Airport Communications:
SOCAL APP/DEP:120.4
ATIS:118.45
CLNC DEL:126.6
CTAF:119.3
GND:121.7
TWR:119
UNICOM:122.95

KVNY Zoom In..

If you have problems with the map follow the link
https://www.worldairports.se/pages/airport.php?
ICAO=KVNY

Runways:

(A) RW 16L length 4013 ft width 75 ft
---- / hdg 161

(B) RW 16R length 8001 ft width 150 ft
ILS 111.30 / hdg 161

(C) RW 34L length 8001 ft width 150 ft
---- / hdg 341

(D) RW 34R length 4013 ft width 75 ft
---- / hdg 341

Location; KVNY
Day. 08 / Time. 18.30 Zulu
* Altimeter: 30.06
* Temperature: 14° c. 57.2°f.
* Wind from: 190° Speed 04 kn.
Dewpoint: 13° c.
Visibility: 4 Statute Miles.
Clouds: Scattered 1400 ft.
Clouds: Broken 2200 ft.
Clouds: Overcast 2900 ft.
Conditions: Light Rain.Conditions: Mist.

KVNY 081830Z 19004KT 4SM -RA BR SCT014 BKN022 OVC029 14/13 A3006 RMK AO2 RAB08 P0006 T01440128


Wind From 190°
Speed 04 kn.

 
 
jpsmedia worldairports.se 2019   terms of use